Miles, Iowa
Current Conditions -  °F | °C
As of 10:15 AM on Thursday 29 Jan 2015 (Local Time) from KSFY Reporting Station
Overcast Overcast  
Wind Chill: 27°   Ceiling: 1900
Heat Index: 35°   Visibility: 7mi
Dew Point: 28°   Wind: 13mph
Humidity: 76%   Direction: 320°NW
Pressure: 30.01"   Gusts: 17mph
Location:  42.05°N, 90.32°W
Report Text: KSFY 291615Z AUTO 32011G15KT 7SM OVC019 02/M02 A3001 RMK AO2 T00181020
Loading
Personal Weather Stations






























Interactive Weather Map New forecast layout! Learn more

10-Day Weather Forecast

Advertisements
Track Severe Weather on mobile